Flight Track Log - Related Links

Times and Time Zones

All times are in EDT time to prevent confusion due to time zone crossing. See the N216RP flight status page for this flight to view local times or setup timezone preferences in your user account.

Time Position Orientation Groundspeed Altitude Reporting Facility
EDT Latitude Longitude Course Direction KTS MPH feet Rate Location/Type
Fri 09:41:45 AM 26.0517 -81.5925 350° North 188 216 5,000  Level Miami Center
Fri 09:42:45 AM 26.0997 -81.5992 353° North 188 216 6,200 5,000 Climbing Miami Center
Fri 09:44:45 AM 26.1947 -81.6236 347° North 175 201 20,000 4,600 Climbing Miami Center
Fri 09:45:45 AM 26.2450 -81.6233 360° North 175 201 20,000  Level Miami Center
Fri 09:46:00 AM 26.4361 -81.7405 350° North  Level FlightAware Approximate
Fri 09:46:45 AM 26.2992 -81.6278 356° North 182 209 20,000  Level Miami Center
Fri 09:47:00 AM 26.5113 -81.7556 350° North  Level FlightAware Approximate
Fri 09:47:45 AM 26.3531 -81.6369 351° North 182 209 20,000  Level Miami Center
Fri 09:48:45 AM 26.4092 -81.6486 349° North 182 209 20,000  Level Miami Center
Fri 09:49:45 AM 26.4564 -81.6736 335° Northwest 182 209 20,000  Level Miami Center
Fri 09:50:45 AM 26.5081 -81.6897 344° North 182 209 20,000  Level Miami Center
Fri 09:51:45 AM 26.5594 -81.7081 342° North 187 215 20,000  Level Miami Center
Fri 09:52:45 AM 26.6197 -81.7197 350° North 193 222 20,000  Level Miami Center
Fri 09:53:45 AM 26.6817 -81.7386 345° North 210 242 20,000  Level Miami Center
Fri 09:54:45 AM 26.7519 -81.7578 346° North 235 270 20,000  Level Miami Center
Fri 09:55:45 AM 26.8222 -81.7769 346° North 247 284 20,000  Level Miami Center
Fri 09:56:45 AM 26.8928 -81.7939 348° North 247 284 20,000  Level Miami Center
Fri 09:57:45 AM 26.9631 -81.8156 345° North 257 296 20,000  Level Miami Center
Fri 09:58:45 AM 27.0272 -81.8300 349° North 263 303 20,000  Level Miami Center
Fri 09:59:45 AM 27.0994 -81.8494 347° North 263 303 20,000  Level Miami Center
Fri 10:00:45 AM 27.1719 -81.8711 345° North 258 297 20,000  Level Miami Center
Fri 10:01:45 AM 27.2422 -81.8883 348° North 253 291 20,000  Level Miami Center
Fri 10:02:45 AM 27.3150 -81.8983 353° North 261 300 20,000  Level Miami Center
Fri 10:03:45 AM 27.3792 -81.9106 350° North 256 295 20,000  Level Miami Center
Fri 10:04:45 AM 27.4581 -81.9233 352° North 256 295 20,000  Level Miami Center
Fri 10:05:45 AM 27.5306 -81.9361 351° North 256 295 20,000  Level Miami Center
Fri 10:06:45 AM 27.6033 -81.9461 353° North 256 295 20,000  Level Miami Center
Fri 10:07:45 AM 27.6675 -81.9583 350° North 256 295 20,000  Level Miami Center
Fri 10:08:45 AM 27.7381 -81.9711 351° North 256 295 20,000  Level Miami Center
Fri 10:09:45 AM 27.8189 -81.9864 351° North 256 295 20,000  Level Miami Center
Fri 10:10:45 AM 27.8914 -81.9992 351° North 248 285 20,000  Level Miami Center
Fri 10:11:44 AM 27.9528 -82.0092 352° North 259 298 20,000  Level Jacksonville Center
Fri 10:12:44 AM 28.0219 -82.0344 342° North 254 292 20,000  Level Jacksonville Center
Fri 10:13:44 AM 28.0806 -82.0811 325° Northwest 249 287 20,000  Level Jacksonville Center
Fri 10:14:44 AM 28.1433 -82.1206 331° Northwest 249 287 20,000  Level Jacksonville Center
Fri 10:15:44 AM 28.2064 -82.1578 333° Northwest 249 287 20,000  Level Jacksonville Center
Fri 10:16:44 AM 28.2669 -82.1997 329° Northwest 249 287 20,000  Level Jacksonville Center
Fri 10:17:44 AM 28.3319 -82.2394 332° Northwest 255 293 20,000  Level Jacksonville Center
Fri 10:18:44 AM 28.3947 -82.2792 331° Northwest 255 293 20,000  Level Jacksonville Center
Fri 10:19:44 AM 28.4597 -82.3211 330° Northwest 255 293 20,000  Level Jacksonville Center
Fri 10:20:44 AM 28.5225 -82.3611 331° Northwest 255 293 20,000  Level Jacksonville Center
Fri 10:21:44 AM 28.5872 -82.4031 330° Northwest 260 299 20,000  Level Jacksonville Center
Fri 10:22:44 AM 28.6519 -82.4431 332° Northwest 260 299 20,000  Level Jacksonville Center
Fri 10:23:44 AM 28.7231 -82.4569 350° North 260 299 20,000 150 Level Jacksonville Center
Fri 10:24:44 AM 28.7961 -82.4661 354° North 260 299 20,300 300 Climbing Jacksonville Center
Fri 10:25:44 AM 28.8650 -82.4778 352° North 260 299 20,600 300 Climbing Jacksonville Center
Fri 10:26:44 AM 28.9361 -82.4869 354° North 260 299 20,900 300 Climbing Jacksonville Center
Fri 10:27:44 AM 29.0069 -82.4936 355° North 255 293 21,200 400 Climbing Jacksonville Center
Fri 10:28:44 AM 29.0761 -82.5053 352° North 255 293 21,700 400 Climbing Jacksonville Center
Fri 10:29:44 AM 29.1450 -82.5122 355° North 255 293 22,000 150 Climbing Jacksonville Center
Fri 10:30:44 AM 29.2181 -82.5214 354° North 255 293 22,000  Level Jacksonville Center
Fri 10:31:44 AM 29.2911 -82.5306 354° North 260 299 22,000  Level Jacksonville Center
Fri 10:32:44 AM 29.3683 -82.5400 354° North 260 299 22,000  Level Jacksonville Center
Fri 10:33:44 AM 29.4414 -82.5492 354° North 265 305 22,000  Level Jacksonville Center
Fri 10:34:44 AM 29.5186 -82.5608 353° North 270 311 22,000  Level Jacksonville Center
Fri 10:35:44 AM 29.6022 -82.5700 355° North 278 320 22,000  Level Jacksonville Center
Fri 10:36:44 AM 29.6775 -82.5794 354° North 273 314 22,000  Level Jacksonville Center
Fri 10:37:44 AM 29.7525 -82.5864 355° North 273 314 22,000  Level Jacksonville Center
Fri 10:38:44 AM 29.8297 -82.5956 354° North 273 314 22,000 50 Level Jacksonville Center
Fri 10:39:44 AM 29.9050 -82.6075 352° North 273 314 22,100 250 Climbing Jacksonville Center
Fri 10:40:44 AM 29.9803 -82.6192 352° North 273 314 22,500 350 Climbing Jacksonville Center
Fri 10:41:44 AM 30.0533 -82.6311 352° North 273 314 22,800 350 Climbing Jacksonville Center
Fri 10:42:44 AM 30.1283 -82.6406 354° North 273 314 23,200 300 Climbing Jacksonville Center
Fri 10:43:44 AM 30.1994 -82.6475 355° North 273 314 23,400 300 Climbing Jacksonville Center
Fri 10:44:44 AM 30.2747 -82.6569 354° North 273 314 23,800 550 Climbing Jacksonville Center
Fri 10:45:44 AM 30.3456 -82.6664 353° North 268 308 24,500 600 Climbing Jacksonville Center
Fri 10:46:44 AM 30.4208 -82.6733 355° North 268 308 25,000 550 Climbing Jacksonville Center
Fri 10:47:44 AM 30.4919 -82.6828 353° North 263 303 25,600 550 Climbing Jacksonville Center
Fri 10:48:44 AM 30.5586 -82.6947 351° North 257 296 26,100 450 Climbing Jacksonville Center
Fri 10:49:44 AM 30.6275 -82.7067 352° North 251 289 26,500 400 Climbing Jacksonville Center
Fri 10:50:44 AM 30.6986 -82.7283 345° North 251 289 26,900 300 Climbing Jacksonville Center
Fri 10:51:44 AM 30.7675 -82.7475 347° North 256 295 27,100 100 Climbing Jacksonville Center
Fri 10:52:44 AM 30.8406 -82.7789 340° North 261 300 27,100  Level Jacksonville Center
Fri 10:53:44 AM 30.9158 -82.7981 348° North 266 306 27,100 -50 Level Jacksonville Center
Fri 10:54:44 AM 30.9931 -82.8150 349° North 272 313 27,000 -50 Descending Jacksonville Center
Fri 10:55:44 AM 31.0725 -82.8197 357° North 278 320 27,000  Level Jacksonville Center
Fri 10:56:44 AM 31.1539 -82.8197 360° North 283 326 27,000  Level Jacksonville Center
Fri 10:57:44 AM 31.2353 -82.8294 354° North 290 334 27,000  Level Jacksonville Center
Fri 10:58:44 AM 31.3167 -82.8414 353° North 290 334 27,000  Level Jacksonville Center
Fri 10:59:44 AM 31.3961 -82.8511 354° North 290 334 27,000  Level Jacksonville Center
Fri 11:00:44 AM 31.4797 -82.8608 354° North 290 334 27,000  Level Jacksonville Center
Fri 11:03:49 AM 31.7206 -82.8964 353° North 287 330 27,000  Level Atlanta Center
Fri 11:04:49 AM 31.8019 -82.9075 353° North 274 315 27,000  Level Atlanta Center
Fri 11:05:49 AM 31.8856 -82.9211 352° North 274 315 27,000  Level Atlanta Center
Fri 11:06:49 AM 31.9608 -82.9275 356° North 274 315 27,000  Level Atlanta Center
Fri 11:07:49 AM 32.0444 -82.9386 354° North 279 321 27,000  Level Atlanta Center
Fri 11:08:49 AM 32.1236 -82.9475 355° North 279 321 27,000  Level Atlanta Center
Fri 11:09:49 AM 32.2053 -82.9589 353° North 284 327 27,000  Level Atlanta Center
Fri 11:10:49 AM 32.2867 -82.9700 353° North 294 338 27,000  Level Atlanta Center
Fri 11:11:49 AM 32.3661 -82.9839 352° North 294 338 27,000  Level Atlanta Center
Fri 11:12:49 AM 32.4456 -82.9903 356° North 294 338 27,000  Level Atlanta Center
Fri 11:13:49 AM 32.5292 -83.0017 353° North 294 338 27,000  Level Atlanta Center
Fri 11:14:49 AM 32.6086 -83.0131 353° North 294 338 27,000  Level Atlanta Center
Fri 11:15:49 AM 32.6942 -83.0244 354° North 294 338 27,000  Level Atlanta Center
Fri 11:16:49 AM 32.7778 -83.0383 352° North 294 338 27,000  Level Atlanta Center
Fri 11:17:49 AM 32.8550 -83.0472 354° North 289 333 27,000  Level Atlanta Center
Fri 11:18:49 AM 32.9367 -83.0561 355° North 289 333 27,000 100 Level Atlanta Center
Fri 11:19:49 AM 33.0161 -83.0678 353° North 294 338 27,200 250 Climbing Atlanta Center
Fri 11:20:49 AM 33.1100 -83.0767 355° North 294 338 27,500 250 Climbing Atlanta Center
Fri 11:21:49 AM 33.1789 -83.0883 352° North 289 333 27,700 200 Climbing Atlanta Center
Fri 11:22:49 AM 33.2667 -83.0997 354° North 289 333 27,900 150 Climbing Atlanta Center
Fri 11:23:49 AM 33.3358 -83.1114 352° North 284 327 28,000 50 Climbing Atlanta Center
Fri 11:24:49 AM 33.4150 -83.1206 354° North 284 327 28,000  Level Atlanta Center
Fri 11:25:49 AM 33.4967 -83.1319 353° North 289 333 28,000  Level Atlanta Center
Fri 11:26:49 AM 33.5803 -83.1436 353° North 295 339 28,000  Level Atlanta Center
Fri 11:27:49 AM 33.6594 -83.1528 354° North 290 334 28,000  Level Atlanta Center
Fri 11:28:49 AM 33.7369 -83.1644 353° North 290 334 28,000  Level Atlanta Center
Fri 11:29:49 AM 33.8203 -83.1736 355° North 285 328 28,000  Level Atlanta Center
Fri 11:30:49 AM 33.9081 -83.1878 352° North 290 334 28,000  Level Atlanta Center
Fri 11:31:49 AM 33.9856 -83.1969 354° North 290 334 28,000  Level Atlanta Center
Fri 11:32:49 AM 34.0692 -83.2089 353° North 295 339 28,000  Level Atlanta Center
Fri 11:33:49 AM 34.1483 -83.2206 353° North 282 325 28,000  Level Atlanta Center
Fri 11:34:49 AM 34.2278 -83.2322 353° North 289 333 28,000  Level Atlanta Center
Fri 11:35:49 AM 34.3114 -83.2417 355° North 295 339 28,000  Level Atlanta Center
Fri 11:36:49 AM 34.3908 -83.2533 353° North 290 334 28,000  Level Atlanta Center
Fri 11:37:49 AM 34.4742 -83.2628 355° North 296 341 28,000  Level Atlanta Center
Fri 11:38:49 AM 34.5558 -83.2744 353° North 296 341 28,000  Level Atlanta Center
Fri 11:39:49 AM 34.6372 -83.2839 355° North 296 341 28,000  Level Atlanta Center
Fri 11:40:49 AM 34.7103 -83.2983 351° North 291 335 28,000  Level Atlanta Center
Fri 11:41:49 AM 34.7917 -83.3103 353° North 291 335 28,000  Level Atlanta Center
Fri 11:42:49 AM 34.8733 -83.3247 352° North 296 341 28,000  Level Atlanta Center
Fri 11:43:49 AM 34.9653 -83.3367 354° North 296 341 28,000  Level Atlanta Center
Fri 11:44:49 AM 35.0361 -83.3461 354° North 296 341 28,000  Level Atlanta Center
Fri 11:45:49 AM 35.1197 -83.3531 356° North 296 341 28,000  Level Atlanta Center
Fri 11:46:49 AM 35.2094 -83.3703 351° North 291 335 28,000  Level Atlanta Center
Fri 11:47:49 AM 35.2908 -83.3797 355° North 296 341 28,000  Level Atlanta Center
Fri 11:48:49 AM 35.3681 -83.3919 353° North 296 341 28,000  Level Atlanta Center
Fri 11:49:49 AM 35.4494 -83.4014 355° North 291 335 28,000  Level Atlanta Center
Fri 11:50:49 AM 35.5311 -83.4136 353° North 291 335 28,000  Level Atlanta Center
Fri 11:51:49 AM 35.6125 -83.4256 353° North 291 335 28,000  Level Atlanta Center
Fri 11:52:49 AM 35.6958 -83.4378 353° North 291 335 28,000  Level Atlanta Center
Fri 11:53:49 AM 35.7731 -83.4500 353° North 291 335 28,000  Level Atlanta Center
Fri 11:54:49 AM 35.8544 -83.4597 354° North 291 335 28,000  Level Atlanta Center
Fri 11:55:49 AM 35.9381 -83.4719 353° North 296 341 28,000  Level Atlanta Center
Fri 11:56:49 AM 36.0175 -83.4842 353° North 296 341 28,000  Level Atlanta Center
Fri 11:57:49 AM 36.0989 -83.4964 353° North 296 341 28,000  Level Atlanta Center
Fri 11:58:49 AM 36.1781 -83.5089 353° North 294 338 28,000  Level Atlanta Center
Fri 11:59:49 AM 36.2617 -83.5186 355° North 294 338 28,000  Level Atlanta Center
Fri 12:01:29 PM 36.3856 -83.5347 354° North 290 334 28,000  Level Indianapolis Center
Fri 12:02:31 PM 36.4656 -83.5469 353° North 290 334 28,000  Level Indianapolis Center
Fri 12:03:33 PM 36.5567 -83.5600 353° North 291 335 28,000  Level Indianapolis Center
Fri 12:04:35 PM 36.6367 -83.5694 355° North 289 333 28,000  Level Indianapolis Center
Fri 12:05:37 PM 36.7175 -83.5831 352° North 289 333 28,000  Level Indianapolis Center
Fri 12:06:39 PM 36.7989 -83.5953 353° North 290 334 28,000  Level Indianapolis Center
Fri 12:07:41 PM 36.8786 -83.6064 354° North 286 329 28,000  Level Indianapolis Center
Fri 12:08:43 PM 36.9728 -83.6186 354° North 289 333 28,000  Level Indianapolis Center
Fri 12:09:45 PM 37.0550 -83.6158 North 290 334 28,000  Level Indianapolis Center
Fri 12:10:00 PM 37.0704 -83.6060 North  Level FlightAware Approximate
Fri 12:10:47 PM 37.1367 -83.6178 359° North 292 336 28,000  Level Indianapolis Center
Fri 12:11:49 PM 37.2136 -83.6372 349° North 283 326 28,000  Level Indianapolis Center
Fri 12:12:50 PM 37.2953 -83.6475 354° North 290 334 28,000  Level Indianapolis Center
Fri 12:13:52 PM 37.3761 -83.6586 354° North 290 334 28,000  Level Indianapolis Center
Fri 12:14:54 PM 37.4697 -83.6722 353° North 289 333 28,000  Level Indianapolis Center
Fri 12:15:56 PM 37.5489 -83.6833 354° North 287 330 28,000  Level Indianapolis Center
Fri 12:16:58 PM 37.6292 -83.6958 353° North 290 334 28,000  Level Indianapolis Center
Fri 12:18:00 PM 37.7097 -83.7064 354° North 290 334 28,000  Level Indianapolis Center
Fri 12:19:02 PM 37.7892 -83.7181 353° North 288 331 28,000  Level Indianapolis Center
Fri 12:20:04 PM 37.8697 -83.7300 353° North 289 333 28,000  Level Indianapolis Center
Fri 12:21:06 PM 37.9636 -83.7428 354° North 291 335 28,000  Level Indianapolis Center
Fri 12:22:08 PM 38.0303 -83.7542 352° North 290 334 28,000  Level Indianapolis Center
Fri 12:23:10 PM 38.1225 -83.7683 353° North 285 328 28,000  Level Indianapolis Center
Fri 12:24:12 PM 38.2022 -83.7794 354° North 286 329 28,000 -49 Level Indianapolis Center
Fri 12:25:13 PM 38.2806 -83.7950 351° North 285 328 27,900  Descending Indianapolis Center
Fri 12:26:15 PM 38.3589 -83.8053 354° North 283 326 28,000  Climbing Indianapolis Center
Fri 12:27:17 PM 38.4517 -83.8194 353° North 286 329 27,900 -48 Descending Indianapolis Center
Fri 12:28:19 PM 38.5283 -83.8319 353° North 280 322 27,900 48 Level Indianapolis Center
Fri 12:29:21 PM 38.6053 -83.8458 352° North 278 320 28,000 49 Climbing Indianapolis Center
Fri 12:30:22 PM 38.6856 -83.8586 353° North 285 328 28,000  Level Indianapolis Center
Fri 12:31:24 PM 38.7594 -83.8736 351° North 285 328 28,000 -48 Level Indianapolis Center
Fri 12:32:26 PM 38.8375 -83.8861 353° North 285 328 27,900  Descending Indianapolis Center
Fri 12:33:28 PM 38.9286 -83.9036 352° North 287 330 28,000 -48 Climbing Indianapolis Center
Fri 12:34:30 PM 39.0081 -83.9150 354° North 288 331 27,800 -195 Descending Indianapolis Center
Fri 12:35:31 PM 39.0869 -83.9294 352° North 288 331 27,600 -244 Descending Indianapolis Center
Fri 12:36:33 PM 39.1722 -83.9408 354° North 294 338 27,300 -242 Descending Indianapolis Center
Fri 12:37:35 PM 39.2550 -83.9528 354° North 296 341 27,100 -242 Descending Indianapolis Center
Fri 12:38:37 PM 39.3372 -83.9667 353° North 295 339 26,800 -290 Descending Indianapolis Center
Fri 12:39:39 PM 39.4339 -83.9800 354° North 296 341 26,500 -242 Descending Indianapolis Center
Fri 12:40:41 PM 39.5014 -83.9922 352° North 295 339 26,300 -194 Descending Indianapolis Center
Fri 12:41:43 PM 39.5836 -84.0042 354° North 294 338 26,100 -145 Descending Indianapolis Center
Fri 12:42:45 PM 39.6806 -84.0228 352° North 295 339 26,000 -48 Descending Indianapolis Center
Fri 12:43:47 PM 39.7675 -84.0358 353° North 293 337 26,000  Level Indianapolis Center
Fri 12:44:49 PM 39.8428 -84.0467 354° North 292 336 26,000  Level Indianapolis Center
Fri 12:45:51 PM 39.9192 -84.0633 351° North 291 335 26,000  Level Indianapolis Center
Fri 12:46:52 PM 40.0025 -84.0753 354° North 283 326 26,000  Level Indianapolis Center
Fri 12:47:54 PM 40.0811 -84.0881 353° North 284 327 26,000 -194 Level Indianapolis Center
Fri 12:48:56 PM 40.1631 -84.1025 352° North 279 321 25,600 -339 Descending Indianapolis Center
Fri 12:49:58 PM 40.2494 -84.1186 352° North 281 323 25,300 -290 Descending Indianapolis Center
Fri 12:51:00 PM 40.3292 -84.1311 353° North 283 326 25,000 -290 Descending Indianapolis Center
Fri 12:52:02 PM 40.4103 -84.1461 352° North 287 330 24,700 -290 Descending Indianapolis Center
Fri 12:53:04 PM 40.4947 -84.1572 354° North 299 344 24,400 -290 Descending Indianapolis Center
Fri 12:54:06 PM 40.5733 -84.1731 351° North 301 346 24,100 -242 Descending Indianapolis Center
Fri 12:55:08 PM 40.6622 -84.1867 353° North 300 345 23,900 -242 Descending Indianapolis Center
Fri 12:56:10 PM 40.7447 -84.2017 352° North 298 343 23,600 -290 Descending Indianapolis Center
Fri 12:57:12 PM 40.8300 -84.2156 353° North 302 348 23,300 -339 Descending Indianapolis Center
Fri 12:58:14 PM 40.9289 -84.2322 353° North 304 350 22,900 -387 Descending Indianapolis Center
Fri 12:59:16 PM 41.0131 -84.2425 355° North 302 348 22,500 -484 Descending Indianapolis Center
Fri 01:00:18 PM 41.1022 -84.2589 352° North 301 346 21,900 -656 Descending Indianapolis Center
Fri 01:01:24 PM 41.1872 -84.2781 350° North 294 338 21,100 -810 Descending Cleveland Center
Fri 01:02:24 PM 41.2744 -84.2911 354° North 299 344 20,200 -850 Descending Cleveland Center
Fri 01:03:24 PM 41.3614 -84.3100 351° North 309 356 19,400 -850 Descending Cleveland Center
Fri 01:04:24 PM 41.4486 -84.3233 353° North 314 361 18,500 -800 Descending Cleveland Center
Fri 01:05:24 PM 41.5356 -84.3394 352° North 309 356 17,800 -900 Descending Cleveland Center
Fri 01:06:24 PM 41.6228 -84.3528 353° North 309 356 16,700 -1,300 Descending Cleveland Center
Fri 01:07:24 PM 41.7078 -84.3689 352° North 309 356 15,200 -1,450 Descending Cleveland Center
Fri 01:08:24 PM 41.7947 -84.3853 352° North 309 356 13,800 -1,450 Descending Cleveland Center
Fri 01:09:24 PM 41.8800 -84.3931 356° North 309 356 12,300 -1,900 Descending Cleveland Center
Fri 01:10:24 PM 41.9750 -84.4156 350° North 314 361 10,000 -1,850 Descending Cleveland Center
Fri 01:11:24 PM 42.0375 -84.4219 356° North 301 346 8,600 -2,050 Descending Cleveland Center
Fri 01:12:24 PM 42.1203 -84.4439 349° North 271 312 5,900 -2,250 Descending Cleveland Center
Fri 01:13:24 PM 42.1819 -84.4644 346° North 246 283 4,100 -1,200 Descending Cleveland Center
Fri 01:14:24 PM 42.2397 -84.4875 344° North 233 268 3,500 3,450 Descending Cleveland Center
Fri 01:15:24 PM 42.3014 -84.5139 342° North 233 268 11,000 7,500 Climbing Cleveland Center
Fri 01:17:00 PM 42.2604 -84.4604 143° Southeast  Level Estimated
Fri 01:24:00 PM 42.2604 -84.4604 143° Southeast  Level Estimated
Fri 01:25:00 PM 42.2604 -84.4604 143° Southeast  Level Estimated

Login

Don't have an account? Register now (free) for customized features, flight alerts, and more!